Time;durP1;ratioP1;P1;durP2;ratioP2;P2;SDS_P1;SDS_P2;PMS_P1;PMS_P2;Temp;Humidity;BMP_temperature;BMP_pressure;BME280_temperature;BME280_humidity;BME280_pressure;Samples;Min_cycle;Max_cycle;Signal;HPM_P1;HPM_P2
2024/04/11 00:00:29;;;;;;;17.20;14.70;;;;;;;16.50;57.39;101189.27;105821;1253;64515;-61
2024/04/11 00:02:57;;;;;;;15.20;13.30;;;;;;;16.44;57.47;101187.35;105378;1257;61359;-65
2024/04/11 00:05:26;;;;;;;15.80;12.20;;;;;;;16.42;57.53;101189.14;105321;1258;63750;-60
2024/04/11 00:07:54;;;;;;;14.40;12.90;;;;;;;16.42;57.44;101189.45;105938;1256;61266;-59
2024/04/11 00:10:21;;;;;;;15.50;13.80;;;;;;;16.41;57.40;101189.95;105959;1253;60844;-59
2024/04/11 00:12:50;;;;;;;15.00;13.40;;;;;;;16.36;57.42;101189.79;105332;1257;65810;-60
2024/04/11 00:15:20;;;;;;;16.30;13.50;;;;;;;16.32;57.12;101188.61;105394;1257;61034;-60
2024/04/11 00:17:48;;;;;;;15.70;13.30;;;;;;;16.25;57.20;101191.16;105547;1256;63757;-60
2024/04/11 00:20:16;;;;;;;16.00;14.30;;;;;;;16.20;57.15;101190.77;105320;1259;61295;-59
2024/04/11 00:22:46;;;;;;;18.20;14.50;;;;;;;16.13;57.02;101193.50;105260;1254;61192;-60
2024/04/11 00:25:14;;;;;;;17.20;14.40;;;;;;;16.06;56.86;101201.58;105292;1259;65664;-62
2024/04/11 00:27:42;;;;;;;16.20;14.30;;;;;;;16.01;56.85;101204.34;105441;1257;61285;-60
2024/04/11 00:30:10;;;;;;;14.60;12.50;;;;;;;15.98;56.93;101201.70;105499;1257;63733;-59
2024/04/11 00:32:37;;;;;;;14.80;13.00;;;;;;;15.99;57.11;101204.00;105501;1257;61237;-60
2024/04/11 00:35:05;;;;;;;19.00;13.00;;;;;;;16.00;57.16;101201.08;106339;1259;61215;-60
2024/04/11 00:37:33;;;;;;;19.30;14.20;;;;;;;15.99;57.00;101200.29;106363;1257;65666;-60
2024/04/11 00:40:00;;;;;;;15.10;13.50;;;;;;;15.97;57.05;101197.95;105721;1254;61376;-60
2024/04/11 00:42:28;;;;;;;18.00;14.70;;;;;;;15.94;57.12;101197.66;105284;1254;73035;-61
2024/04/11 00:44:55;;;;;;;16.20;13.70;;;;;;;15.90;57.18;101198.98;105401;1254;61372;-61
2024/04/11 00:47:23;;;;;;;21.90;14.10;;;;;;;15.85;57.16;101199.02;105453;1254;61268;-59
2024/04/11 00:49:51;;;;;;;18.50;14.10;;;;;;;15.80;57.00;101202.48;105464;1254;64415;-59
2024/04/11 00:52:18;;;;;;;16.80;13.90;;;;;;;15.69;56.99;101199.68;105324;1256;61439;-59
2024/04/11 00:54:47;;;;;;;15.70;14.00;;;;;;;15.62;57.28;101199.10;105424;1254;63701;-60
2024/04/11 00:57:15;;;;;;;16.30;13.20;;;;;;;15.60;57.49;101196.22;106123;1254;176763;-59
2024/04/11 01:12:38;;;;;;;16.00;13.70;;;;;;;15.90;57.43;101208.09;102803;1283;613351;-62
2024/04/11 01:15:06;;;;;;;15.70;14.10;;;;;;;16.19;56.46;101212.68;104693;1267;141629;-61
2024/04/11 01:17:33;;;;;;;15.70;13.90;;;;;;;16.16;56.31;101210.61;105003;1267;59638;-61
2024/04/11 01:20:01;;;;;;;18.50;14.40;;;;;;;16.09;56.29;101213.14;105473;1260;64779;-59
2024/04/11 01:22:28;;;;;;;22.00;14.90;;;;;;;15.98;56.42;101219.29;105639;1257;62021;-59
2024/04/11 01:24:56;;;;;;;15.80;13.90;;;;;;;15.86;56.56;101217.75;105553;1257;64042;-60
2024/04/11 01:27:23;;;;;;;17.00;13.50;;;;;;;15.75;56.65;101218.45;105706;1261;59666;-59
2024/04/11 01:29:51;;;;;;;15.00;12.30;;;;;;;15.68;56.78;101216.83;105954;1257;59631;-60
2024/04/11 01:32:18;;;;;;;15.80;13.30;;;;;;;15.64;56.91;101215.20;105918;1261;66314;-58
2024/04/11 01:34:45;;;;;;;16.30;13.80;;;;;;;15.61;56.97;101213.70;105289;1257;62639;-61
2024/04/11 01:37:12;;;;;;;15.50;13.80;;;;;;;15.56;57.08;101209.34;105142;1257;62705;-60
2024/04/11 01:39:39;;;;;;;16.60;13.60;;;;;;;15.52;57.16;101210.41;105038;1257;60545;-64
2024/04/11 01:42:06;;;;;;;17.30;14.00;;;;;;;15.49;57.16;101211.38;105438;1257;60460;-60
2024/04/11 01:44:33;;;;;;;15.50;13.90;;;;;;;15.44;57.11;101213.57;105603;1260;66161;-59
2024/04/11 01:47:00;;;;;;;14.80;13.20;;;;;;;15.38;57.22;101213.02;105106;1261;60563;-60
2024/04/11 01:49:30;;;;;;;17.00;13.10;;;;;;;15.34;57.49;101210.94;105097;1260;62584;-68
2024/04/11 01:51:58;;;;;;;15.40;13.00;;;;;;;15.28;57.72;101211.23;105131;1261;60708;-61
2024/04/11 01:54:24;;;;;;;13.70;12.20;;;;;;;15.26;57.76;101212.15;105714;1257;60472;-62
2024/04/11 01:56:51;;;;;;;14.20;12.70;;;;;;;15.26;57.75;101212.88;105860;1258;65218;-60
2024/04/11 01:59:19;;;;;;;13.70;12.30;;;;;;;15.27;57.83;101214.53;105168;1260;61707;-61
2024/04/11 02:01:46;;;;;;;18.50;13.40;;;;;;;15.26;57.92;101219.92;105178;1258;64052;-63
2024/04/11 02:04:13;;;;;;;15.30;13.70;;;;;;;15.23;57.83;101219.85;105317;1257;60481;-59
2024/04/11 02:06:40;;;;;;;15.80;12.70;;;;;;;15.19;57.97;101217.34;105408;1262;60440;-56
2024/04/11 02:09:11;;;;;;;13.60;12.20;;;;;;;15.17;58.05;101221.44;105413;1257;65181;-67
2024/04/11 02:11:40;;;;;;;14.50;12.90;;;;;;;15.12;58.17;101220.44;105485;1258;61570;-60
2024/04/11 02:14:07;;;;;;;13.60;11.90;;;;;;;15.08;58.25;101218.83;105368;1257;62928;-61
2024/04/11 02:16:36;;;;;;;15.00;12.30;;;;;;;15.09;58.29;101219.80;105580;1258;60488;-62
2024/04/11 02:19:06;;;;;;;13.10;11.00;;;;;;;15.10;58.28;101220.60;105496;1257;60450;-60
2024/04/11 02:21:38;;;;;;;15.40;12.30;;;;;;;15.10;58.21;101217.98;106268;1257;65098;-62
2024/04/11 02:24:06;;;;;;;14.30;11.90;;;;;;;15.08;58.32;101217.02;105348;1260;60439;-61
2024/04/11 02:26:36;;;;;;;14.30;12.80;;;;;;;15.05;58.27;101216.22;105587;1259;64389;-60
2024/04/11 02:29:04;;;;;;;14.90;13.40;;;;;;;15.02;58.21;101219.84;105422;1260;60542;-60
2024/04/11 02:31:34;;;;;;;15.60;13.50;;;;;;;14.96;58.07;101222.86;105641;1257;60393;-61
2024/04/11 02:34:01;;;;;;;15.00;13.40;;;;;;;14.88;58.09;101224.04;105079;1257;66395;-60
2024/04/11 02:36:29;;;;;;;15.20;13.30;;;;;;;14.77;58.10;101225.81;106324;1257;61678;-60
2024/04/11 02:38:57;;;;;;;16.80;12.90;;;;;;;14.66;58.03;101229.04;105024;1257;63849;-60
2024/04/11 02:41:24;;;;;;;15.60;12.40;;;;;;;14.62;58.11;101229.36;105800;1257;60529;-63
2024/04/11 02:43:51;;;;;;;13.80;12.20;;;;;;;14.62;58.25;101231.52;105855;1257;60457;-62
2024/04/11 02:46:18;;;;;;;14.40;12.90;;;;;;;14.63;58.30;101231.97;105142;1262;65203;-61
2024/04/11 02:48:45;;;;;;;15.10;13.40;;;;;;;14.61;58.34;101228.92;105331;1260;61558;-62
2024/04/11 02:51:13;;;;;;;18.10;13.70;;;;;;;14.59;58.47;101233.00;105218;1257;64026;-62
2024/04/11 02:53:40;;;;;;;15.30;12.70;;;;;;;14.57;58.52;101233.17;105238;1257;60427;-62
2024/04/11 02:56:07;;;;;;;16.00;13.00;;;;;;;14.54;58.46;101233.36;105369;1256;60462;-60
2024/04/11 02:58:34;;;;;;;14.80;12.80;;;;;;;14.49;58.60;101236.77;105525;1261;65255;-60
2024/04/11 03:01:06;;;;;;;15.80;13.90;;;;;;;14.42;58.64;101237.70;105621;1257;62098;-61
2024/04/11 03:03:37;;;;;;;14.50;12.60;;;;;;;14.36;58.73;101237.00;105098;1258;62601;-63
2024/04/11 03:06:13;;;;;;;14.30;11.60;;;;;;;14.35;58.85;101235.37;105183;1261;60488;-58
2024/04/11 03:08:43;;;;;;;13.00;11.50;;;;;;;14.36;59.05;101235.58;105017;1263;60556;-60
2024/04/11 03:11:11;;;;;;;13.70;11.60;;;;;;;14.38;59.16;101235.28;105271;1262;65662;-59
2024/04/11 03:13:38;;;;;;;13.10;11.70;;;;;;;14.37;59.14;101237.26;105383;1257;62119;-60
2024/04/11 03:16:06;;;;;;;14.90;12.30;;;;;;;14.35;59.24;101239.05;105507;1259;62623;-62
2024/04/11 03:18:36;;;;;;;14.90;12.70;;;;;;;14.30;59.38;101238.54;105686;1263;60454;-60
2024/04/11 03:21:05;;;;;;;14.60;12.90;;;;;;;14.25;59.51;101241.05;105468;1257;60450;-58
2024/04/11 03:23:32;;;;;;;13.10;11.80;;;;;;;14.21;59.72;101243.64;105386;1257;65059;-60
2024/04/11 03:25:59;;;;;;;14.30;11.20;;;;;;;14.21;59.95;101244.55;105591;1261;61470;-60
2024/04/11 03:28:29;;;;;;;15.10;11.50;;;;;;;14.23;60.02;101238.73;104927;1257;62883;-61
2024/04/11 03:30:57;;;;;;;14.50;11.90;;;;;;;14.28;60.05;101239.08;105655;1258;60413;-61
2024/04/11 03:33:26;;;;;;;13.20;11.70;;;;;;;14.31;60.04;101243.73;105778;1258;60466;-61
2024/04/11 03:35:57;;;;;;;13.40;12.10;;;;;;;14.34;60.07;101247.54;105765;1261;65239;-60
2024/04/11 03:38:24;;;;;;;13.80;12.30;;;;;;;14.36;60.33;101247.82;105666;1258;61590;-60
2024/04/11 03:41:20;;;;;;;14.90;11.60;;;;;;;14.36;60.38;101252.39;105180;1257;62562;-59
2024/04/11 03:43:45;;;;;;;14.50;12.10;;;;;;;14.34;60.41;101256.27;105232;1257;60457;-60
2024/04/11 03:46:21;;;;;;;13.30;11.60;;;;;;;14.37;60.35;101255.64;105248;1257;60480;-59
2024/04/11 03:48:51;;;;;;;13.40;11.80;;;;;;;14.42;60.28;101255.61;105299;1257;63735;-60
2024/04/11 03:51:22;;;;;;;13.50;11.70;;;;;;;14.46;60.23;101260.88;105120;1258;61716;-60
2024/04/11 03:53:55;;;;;;;14.20;12.50;;;;;;;14.49;60.27;101263.78;105203;1257;65556;-60
2024/04/11 03:56:23;;;;;;;14.60;12.60;;;;;;;14.50;60.17;101264.59;105022;1258;62964;-59
2024/04/11 03:58:51;;;;;;;15.70;12.10;;;;;;;14.50;60.31;101263.00;105092;1256;60469;-60
2024/04/11 04:01:18;;;;;;;17.20;13.50;;;;;;;14.52;60.24;101263.55;105206;1256;65224;-59
2024/04/11 04:03:46;;;;;;;16.10;13.30;;;;;;;14.52;60.19;101267.64;105173;1259;60587;-61
2024/04/11 04:06:13;;;;;;;15.40;13.30;;;;;;;14.54;60.06;101274.02;105305;1257;64176;-62
2024/04/11 04:08:41;;;;;;;15.10;13.50;;;;;;;14.60;59.87;101278.45;105390;1257;60557;-64
2024/04/11 04:11:08;;;;;;;15.90;14.10;;;;;;;14.64;59.56;101278.86;105386;1257;60472;-60
2024/04/11 04:13:37;;;;;;;16.80;13.80;;;;;;;14.64;59.63;101280.40;105110;1257;64005;-63
2024/04/11 04:16:10;;;;;;;17.40;13.40;;;;;;;14.66;59.51;101281.32;105464;1257;62100;-63
2024/04/11 04:18:41;;;;;;;16.20;13.80;;;;;;;14.67;59.56;101280.00;105394;1257;63995;-62
2024/04/11 04:21:08;;;;;;;18.60;14.60;;;;;;;14.70;59.43;101281.52;105392;1257;60574;-66
2024/04/11 04:23:36;;;;;;;16.00;12.80;;;;;;;14.79;59.14;101279.92;105054;1257;60642;-61
2024/04/11 04:26:08;;;;;;;16.10;14.40;;;;;;;14.86;58.86;101279.85;107174;1258;65548;-63
2024/04/11 04:28:38;;;;;;;17.60;14.70;;;;;;;14.91;58.72;101284.24;105132;1256;60440;-64
2024/04/11 04:31:14;;;;;;;15.80;13.70;;;;;;;14.96;58.77;101284.63;105464;1260;63948;-60
2024/04/11 04:33:47;;;;;;;15.90;14.20;;;;;;;15.03;58.81;101289.55;105183;1260;60539;-64
2024/04/11 04:36:26;;;;;;;18.70;12.80;;;;;;;15.12;58.43;101289.89;105215;1259;61050;-69
2024/04/11 04:38:54;;;;;;;16.70;12.80;;;;;;;15.20;57.64;101291.10;109009;1256;65287;-61
2024/04/11 04:41:21;;;;;;;14.90;11.80;;;;;;;15.28;56.99;101291.87;109042;1260;62000;-64
2024/04/11 04:43:53;;;;;;;17.70;12.60;;;;;;;15.36;56.65;101291.91;109051;1256;62779;-63
2024/04/11 04:46:23;;;;;;;13.80;11.50;;;;;;;15.47;56.51;101298.56;109010;1256;58404;-67
2024/04/11 04:48:52;;;;;;;13.80;10.20;;;;;;;15.61;56.05;101299.96;108971;1256;58263;-59
2024/04/11 04:51:19;;;;;;;12.90;9.80;;;;;;;15.79;55.53;101298.97;108975;1257;75638;-57
2024/04/11 04:53:50;;;;;;;13.50;9.80;;;;;;;15.94;54.68;101306.20;105239;1260;60501;-60
2024/04/11 04:56:22;;;;;;;13.40;9.70;;;;;;;16.06;53.81;101307.96;105258;1257;63953;-60
2024/04/11 04:58:51;;;;;;;14.30;9.20;;;;;;;16.19;53.04;101308.75;105172;1257;60466;-63
2024/04/11 05:01:20;;;;;;;11.50;8.50;;;;;;;16.30;52.64;101315.36;105285;1259;60424;-59
2024/04/11 05:03:48;;;;;;;16.30;9.30;;;;;;;16.40;52.45;101319.48;105194;1260;65284;-63
2024/04/11 05:06:16;;;;;;;12.70;8.50;;;;;;;16.48;52.47;101324.22;105239;1260;63029;-57
2024/04/11 05:08:46;;;;;;;14.60;8.90;;;;;;;16.56;52.14;101321.77;105103;1261;63813;-58
2024/04/11 05:11:13;;;;;;;12.60;9.30;;;;;;;16.62;52.02;101317.60;105190;1257;60514;-56
2024/04/11 05:13:41;;;;;;;12.00;9.40;;;;;;;16.70;51.84;101314.44;105416;1258;60505;-58
2024/04/11 05:16:18;;;;;;;16.50;9.40;;;;;;;16.78;51.80;101316.01;105349;1257;63945;-58
2024/04/11 05:18:46;;;;;;;15.30;10.10;;;;;;;16.86;51.74;101313.20;105323;1263;61687;-58
2024/04/11 05:21:19;;;;;;;13.10;8.10;;;;;;;16.93;51.68;101313.06;105256;1259;62787;-58
2024/04/11 05:23:46;;;;;;;13.40;8.70;;;;;;;16.99;51.61;101311.83;105944;1259;61240;-58
2024/04/11 05:26:14;;;;;;;11.80;8.60;;;;;;;17.14;51.57;101312.89;105146;1260;61389;-56
2024/04/11 05:28:45;;;;;;;13.90;8.20;;;;;;;17.30;51.42;101314.83;105369;1261;65864;-58
2024/04/11 05:31:16;;;;;;;11.80;8.60;;;;;;;17.43;51.28;101311.48;106098;1257;62077;-64
2024/04/11 05:33:44;;;;;;;12.30;9.20;;;;;;;17.57;51.36;101313.88;105242;1260;63829;-58
2024/04/11 05:36:17;;;;;;;11.10;8.70;;;;;;;17.72;51.22;101313.69;105434;1260;61371;-60
2024/04/11 05:38:46;;;;;;;12.80;9.60;;;;;;;17.84;50.76;101315.04;105279;1258;61234;-57
2024/04/11 05:41:14;;;;;;;17.00;10.20;;;;;;;17.93;50.57;101318.27;105393;1257;64775;-58
2024/04/11 05:43:47;;;;;;;17.50;10.10;;;;;;;18.01;50.44;101318.17;105494;1260;62175;-59
2024/04/11 05:46:15;;;;;;;16.90;10.20;;;;;;;18.10;50.34;101319.85;105233;1260;64016;-64
2024/04/11 05:48:42;;;;;;;14.90;10.10;;;;;;;18.15;49.93;101322.13;105469;1258;61333;-59
2024/04/11 05:51:10;;;;;;;13.00;9.90;;;;;;;18.20;49.83;101327.40;105504;1258;61285;-63
2024/04/11 05:53:38;;;;;;;17.10;10.70;;;;;;;18.21;50.13;101328.29;105523;1257;67126;-63
2024/04/11 05:56:14;;;;;;;14.70;10.90;;;;;;;18.25;50.02;101329.69;105266;1260;61494;-61
2024/04/11 05:58:45;;;;;;;15.10;11.40;;;;;;;18.28;49.86;101332.27;105329;1260;64025;-60
2024/04/11 06:01:15;;;;;;;16.80;10.90;;;;;;;18.31;49.92;101336.21;105204;1260;61111;-68
2024/04/11 06:03:46;;;;;;;13.70;9.70;;;;;;;18.42;49.82;101340.35;105300;1260;61351;-69
2024/04/11 06:06:13;;;;;;;15.90;10.20;;;;;;;18.52;49.76;101346.25;105059;1259;65887;-68
2024/04/11 06:08:44;;;;;;;14.10;11.10;;;;;;;18.60;49.60;101349.05;105234;1258;61971;-68
2024/04/11 06:11:12;;;;;;;16.00;10.40;;;;;;;18.66;49.62;101347.74;105126;1258;64860;-71
2024/04/11 06:13:39;;;;;;;16.10;10.90;;;;;;;18.71;49.24;101344.53;105470;1257;61328;-71
2024/04/11 06:16:06;;;;;;;16.80;11.30;;;;;;;18.73;49.04;101347.15;105354;1257;61304;-74
2024/04/11 06:18:35;;;;;;;16.00;10.90;;;;;;;18.75;49.13;101349.67;105437;1260;64829;-64
2024/04/11 06:21:06;;;;;;;15.10;10.30;;;;;;;18.78;49.52;101347.66;105835;1259;61670;-63
2024/04/11 06:23:35;;;;;;;16.90;10.30;;;;;;;18.82;49.38;101351.31;105543;1260;64202;-64
2024/04/11 06:26:04;;;;;;;15.00;10.80;;;;;;;18.85;49.42;101352.79;106427;1259;62211;-68
2024/04/11 06:28:33;;;;;;;15.20;11.20;;;;;;;18.90;49.35;101353.79;105856;1254;61270;-64
2024/04/11 06:31:01;;;;;;;23.00;11.60;;;;;;;18.92;49.01;101354.97;105813;1259;66129;-64
2024/04/11 06:33:31;;;;;;;17.30;11.30;;;;;;;18.94;48.93;101358.70;105947;1253;61980;-62
2024/04/11 06:35:59;;;;;;;13.40;10.40;;;;;;;18.97;49.18;101364.26;105257;1254;64531;-59
2024/04/11 06:38:26;;;;;;;15.10;11.10;;;;;;;19.02;49.27;101358.20;105365;1257;61218;-64
2024/04/11 06:40:53;;;;;;;14.70;10.20;;;;;;;19.06;49.11;101358.86;106943;1256;61285;-58
2024/04/11 06:43:21;;;;;;;14.40;10.30;;;;;;;19.10;48.99;101364.89;105228;1257;65982;-58
2024/04/11 06:45:51;;;;;;;13.10;9.80;;;;;;;19.14;49.15;101364.62;105278;1254;61678;-65
2024/04/11 06:48:21;;;;;;;14.70;10.00;;;;;;;19.20;49.20;101366.14;106147;1254;64053;-62
2024/04/11 06:50:50;;;;;;;14.50;10.20;;;;;;;19.25;49.29;101363.73;105361;1254;61346;-71
2024/04/11 06:53:17;;;;;;;12.90;9.70;;;;;;;19.29;49.02;101363.90;105362;1254;61346;-68
2024/04/11 06:55:46;;;;;;;13.70;10.70;;;;;;;19.33;49.06;101366.86;105427;1258;65820;-64
2024/04/11 06:58:22;;;;;;;14.80;10.40;;;;;;;19.39;49.16;101368.06;105364;1259;63414;-65
2024/04/11 07:00:58;;;;;;;15.10;11.20;;;;;;;19.42;49.03;101370.36;105364;1259;65348;-67
2024/04/11 07:03:26;;;;;;;;;;;;;;;19.46;48.97;101370.50;106889;1257;61382;-65
2024/04/11 07:05:59;;;;;;;13.40;10.30;;;;;;;19.49;48.76;101371.23;106717;1254;61401;-62
2024/04/11 07:08:30;;;;;;;15.00;10.70;;;;;;;19.52;48.88;101369.91;109229;1254;74410;-69
2024/04/11 07:11:48;;;;;;;13.60;9.70;;;;;;;19.58;48.92;101368.08;109289;1254;60201;-65
2024/04/11 07:13:55;;;;;;;13.40;10.50;;;;;;;19.66;48.72;101371.11;109200;1254;62744;-65
2024/04/11 07:16:26;;;;;;;17.00;10.50;;;;;;;19.74;48.56;101375.64;109240;1254;59287;-57
2024/04/11 07:18:55;;;;;;;15.20;10.20;;;;;;;19.81;48.57;101377.56;109175;1254;59059;-58
2024/04/11 07:21:26;;;;;;;18.00;10.60;;;;;;;19.87;48.33;101378.19;109325;1257;64653;-64
2024/04/11 07:23:54;;;;;;;15.50;11.50;;;;;;;19.93;48.16;101376.23;105968;1254;61492;-58
2024/04/11 07:26:22;;;;;;;13.60;10.90;;;;;;;19.97;48.03;101377.92;105221;1260;65300;-58
2024/04/11 07:28:50;;;;;;;13.50;10.80;;;;;;;20.02;48.08;101376.02;107634;1254;61249;-61
2024/04/11 07:31:17;;;;;;;17.20;11.10;;;;;;;20.06;48.08;101373.09;109187;1254;59937;-58
2024/04/11 07:33:48;;;;;;;14.20;10.70;;;;;;;20.10;47.86;101379.59;105650;1258;65951;-59
2024/04/11 07:36:17;;;;;;;14.50;11.10;;;;;;;20.13;48.06;101381.03;106183;1258;61563;-56
2024/04/11 07:38:43;;;;;;;18.30;12.30;;;;;;;20.19;48.12;101383.65;105538;1254;64127;-55
2024/04/11 07:41:16;;;;;;;15.90;10.00;;;;;;;20.25;48.20;101388.55;105527;1253;61281;-55
2024/04/11 07:43:47;;;;;;;16.50;10.60;;;;;;;20.30;48.16;101392.61;105424;1260;61265;-54
2024/04/11 07:46:14;;;;;;;13.80;11.50;;;;;;;20.35;47.98;101393.23;105385;1256;66256;-56
2024/04/11 07:48:47;;;;;;;16.70;11.60;;;;;;;20.39;48.16;101395.21;105514;1254;62471;-55
2024/04/11 07:51:15;;;;;;;17.30;12.10;;;;;;;20.43;48.10;101394.13;105363;1258;64058;-57
2024/04/11 07:53:49;;;;;;;15.70;10.60;;;;;;;20.47;47.98;101395.80;105603;1255;61243;-57
2024/04/11 07:56:20;;;;;;;18.00;11.80;;;;;;;20.55;48.23;101393.75;105374;1260;61419;-57
2024/04/11 07:58:48;;;;;;;17.40;11.70;;;;;;;20.63;47.90;101392.24;105451;1257;66935;-56
2024/04/11 08:01:22;;;;;;;14.90;11.70;;;;;;;20.67;47.73;101392.64;105295;1260;61629;-56
2024/04/11 08:03:49;;;;;;;19.00;11.00;;;;;;;20.71;47.72;101394.74;105388;1260;65309;-56
2024/04/11 08:06:16;;;;;;;16.10;11.60;;;;;;;20.74;47.85;101395.70;105257;1254;61249;-61
2024/04/11 08:08:48;;;;;;;12.20;10.00;;;;;;;20.75;47.65;101393.02;105049;1259;61375;-57
2024/04/11 08:11:15;;;;;;;14.10;11.20;;;;;;;20.78;47.59;101394.53;105230;1260;67321;-57
2024/04/11 08:13:47;;;;;;;15.60;11.40;;;;;;;20.83;47.80;101395.46;105325;1259;62916;-59
2024/04/11 08:16:14;;;;;;;14.50;11.00;;;;;;;20.89;47.90;101396.41;105308;1257;65100;-58
2024/04/11 08:18:41;;;;;;;19.80;11.80;;;;;;;20.95;47.64;101398.02;105414;1259;59741;-53
2024/04/11 08:21:08;;;;;;;14.20;11.00;;;;;;;21.03;47.66;101402.98;109202;1254;60893;-54
2024/04/11 08:23:36;;;;;;;16.70;11.60;;;;;;;21.09;47.47;101400.11;109285;1254;64834;-54
2024/04/11 08:26:04;;;;;;;14.40;11.60;;;;;;;21.16;47.41;101399.90;109269;1254;60449;-55
2024/04/11 08:28:37;;;;;;;15.80;11.00;;;;;;;21.24;47.45;101399.39;106705;1255;64098;-54
2024/04/11 08:31:07;;;;;;;16.70;10.20;;;;;;;21.34;47.42;101401.20;109019;1254;60689;-53
2024/04/11 08:33:34;;;;;;;16.30;11.10;;;;;;;21.42;47.06;101402.41;109106;1254;61516;-51
2024/04/11 08:36:08;;;;;;;12.70;10.40;;;;;;;21.49;46.89;101397.41;105569;1254;67640;-52
2024/04/11 08:38:43;;;;;;;13.70;10.90;;;;;;;21.56;47.03;101394.52;105755;1259;61334;-50
2024/04/11 08:41:11;;;;;;;14.50;10.00;;;;;;;21.62;46.99;101399.66;105397;1257;62694;-51
2024/04/11 08:43:40;;;;;;;12.50;10.80;;;;;;;21.70;46.89;101399.86;107307;1258;61155;-50
2024/04/11 08:46:08;;;;;;;16.80;10.90;;;;;;;21.77;46.72;101397.66;105131;1254;61349;-51
2024/04/11 08:48:38;;;;;;;13.50;9.80;;;;;;;21.82;46.71;101396.36;105712;1258;67237;-48
2024/04/11 08:51:21;;;;;;;15.90;11.60;;;;;;;21.89;46.83;101395.48;105448;1254;61753;-51
2024/04/11 08:53:53;;;;;;;15.90;10.70;;;;;;;21.95;46.51;101398.35;106074;1259;62792;-50
2024/04/11 08:56:31;;;;;;;20.60;11.40;;;;;;;22.02;46.26;101395.07;105802;1260;61487;-52
2024/04/11 08:58:59;;;;;;;14.30;10.30;;;;;;;22.08;46.36;101392.05;105709;1254;61270;-53
2024/04/11 09:01:26;;;;;;;14.40;10.70;;;;;;;22.16;46.27;101390.85;105673;1259;65931;-49
2024/04/11 09:03:53;;;;;;;13.80;10.90;;;;;;;22.23;46.15;101391.61;108406;1254;61966;-52
2024/04/11 09:06:24;;;;;;;12.60;9.70;;;;;;;22.30;45.88;101395.70;105893;1260;63824;-50
2024/04/11 09:08:52;;;;;;;14.90;10.40;;;;;;;22.38;45.93;101399.71;105387;1257;61361;-52
2024/04/11 09:11:22;;;;;;;13.50;9.70;;;;;;;22.47;45.85;101398.39;105392;1254;61368;-50
2024/04/11 09:13:53;;;;;;;13.10;9.50;;;;;;;22.56;45.76;101399.10;106756;1259;64837;-49
2024/04/11 09:16:27;;;;;;;14.60;9.90;;;;;;;22.67;45.85;101400.26;106158;1257;62012;-50
2024/04/11 09:19:22;;;;;;;14.80;10.10;;;;;;;22.76;45.49;101399.48;106809;1260;63874;-47
2024/04/11 09:21:49;;;;;;;15.30;9.60;;;;;;;22.86;45.32;101400.69;105934;1260;61371;-47
2024/04/11 09:24:23;;;;;;;15.00;10.00;;;;;;;22.94;45.16;101399.85;106032;1253;61269;-47
2024/04/11 09:26:50;;;;;;;13.20;10.20;;;;;;;23.03;45.03;101399.05;105323;1260;67131;-49
2024/04/11 09:29:17;;;;;;;12.80;9.60;;;;;;;23.07;44.82;101398.43;105360;1258;63170;-48
2024/04/11 09:31:49;;;;;;;15.10;9.40;;;;;;;23.10;44.67;101397.34;105392;1260;65365;-47
2024/04/11 09:34:20;;;;;;;13.10;10.20;;;;;;;23.16;44.66;101396.31;105545;1254;61268;-47
2024/04/11 09:36:48;;;;;;;12.10;9.20;;;;;;;23.24;44.68;101397.55;105541;1255;61234;-49
2024/04/11 09:42:11;;;;;;;14.90;9.20;;;;;;;23.50;44.74;101400.11;105488;1257;61615;-49
2024/04/11 09:44:46;;;;;;;13.80;8.50;;;;;;;23.70;44.48;101401.20;105490;1259;64016;-47
2024/04/11 09:47:18;;;;;;;;;;;;;;;23.87;44.13;101400.55;105397;1257;61313;-53
2024/04/11 09:50:04;;;;;;;14.00;9.30;;;;;;;24.00;43.25;101398.08;105516;1254;61345;-49
2024/04/11 09:52:37;;;;;;;11.80;10.60;;;;;;;24.04;43.63;101403.16;105783;1257;66042;-50
2024/04/11 09:55:07;;;;;;;11.30;8.90;;;;;;;24.04;43.08;101404.08;105767;1254;70642;-49
2024/04/11 09:57:37;;;;;;;13.20;9.00;;;;;;;24.03;42.95;101403.20;105384;1255;64371;-52
2024/04/11 10:00:07;;;;;;;13.10;8.90;;;;;;;24.00;42.95;101405.18;105784;1257;61374;-53
2024/04/11 10:02:35;;;;;;;12.70;9.00;;;;;;;23.96;43.22;101408.29;105681;1257;61257;-49
2024/04/11 10:05:04;;;;;;;13.60;8.60;;;;;;;23.95;43.13;101401.58;105765;1254;67245;-49
2024/04/11 10:07:41;;;;;;;16.50;9.60;;;;;;;23.99;43.20;101398.77;105921;1257;62769;-47
2024/04/11 10:10:25;;;;;;;13.90;8.50;;;;;;;24.04;43.10;101400.48;105632;1254;63969;-46
2024/04/11 10:12:52;;;;;;;10.90;9.00;;;;;;;24.09;42.93;101398.48;105929;1257;61113;-54
2024/04/11 10:15:21;;;;;;;10.10;7.70;;;;;;;24.12;42.78;101400.09;105131;1254;61339;-50
2024/04/11 10:18:11;;;;;;;12.30;8.10;;;;;;;24.18;42.86;101401.83;108616;1254;64737;-51
2024/04/11 10:21:02;;;;;;;15.00;8.40;;;;;;;24.25;42.60;101402.48;105620;1254;62798;-49
2024/04/11 10:23:32;;;;;;;15.90;8.90;;;;;;;24.32;42.52;101401.73;105725;1257;64063;-51
2024/04/11 10:26:02;;;;;;;12.00;7.80;;;;;;;24.41;42.65;101404.79;105712;1254;61267;-53
2024/04/11 10:28:41;;;;;;;11.70;7.80;;;;;;;24.49;42.15;101403.10;105718;1254;61250;-52
2024/04/11 10:31:12;;;;;;;12.30;7.40;;;;;;;24.55;41.85;101401.82;105615;1257;65988;-53
2024/04/11 10:33:58;;;;;;;10.40;7.00;;;;;;;24.61;41.92;101406.66;105531;1258;61357;-49
2024/04/11 10:36:32;;;;;;;9.40;6.90;;;;;;;24.68;41.71;101404.66;105866;1257;64100;-53
2024/04/11 10:38:59;;;;;;;10.60;7.00;;;;;;;24.75;41.56;101409.27;106012;1257;61246;-58
2024/04/11 10:41:28;;;;;;;11.10;7.10;;;;;;;24.77;41.37;101412.02;105919;1254;61285;-61
2024/04/11 10:44:02;;;;;;;9.30;6.70;;;;;;;24.76;41.11;101408.75;106097;1257;65985;-59
2024/04/11 10:46:30;;;;;;;10.10;7.00;;;;;;;24.78;41.11;101408.31;105555;1254;63078;-55
2024/04/11 10:49:15;;;;;;;12.50;7.00;;;;;;;24.78;40.99;101403.25;105892;1257;64173;-61
2024/04/11 10:51:44;;;;;;;11.30;6.40;;;;;;;24.79;40.81;101405.42;105484;1257;61371;-59
2024/04/11 10:54:12;;;;;;;10.30;6.90;;;;;;;24.80;41.00;101405.64;105639;1254;61291;-59
2024/04/11 10:56:43;;;;;;;10.80;7.40;;;;;;;24.83;41.08;101405.83;105505;1253;64919;-61
2024/04/11 10:59:17;;;;;;;10.50;7.80;;;;;;;24.86;40.90;101399.73;105496;1254;61852;-59
2024/04/11 11:01:50;;;;;;;12.00;6.60;;;;;;;24.88;40.74;101399.59;105268;1258;64105;-58
2024/04/11 11:04:31;;;;;;;10.50;7.30;;;;;;;24.86;40.74;101405.12;108977;1254;61228;-58
2024/04/11 11:07:01;;;;;;;11.80;7.60;;;;;;;24.85;40.74;101409.16;105096;1260;61460;-59
2024/04/11 11:09:29;;;;;;;12.10;6.70;;;;;;;24.88;40.91;101403.77;105931;1257;66119;-57
2024/04/11 11:11:55;;;;;;;10.40;7.30;;;;;;;24.96;40.75;101399.82;105768;1257;61836;-55
2024/04/11 11:14:25;;;;;;;8.80;6.60;;;;;;;25.03;40.65;101400.47;106073;1257;64043;-59
2024/04/11 11:17:01;;;;;;;13.90;7.30;;;;;;;25.09;40.70;101393.43;106055;1254;61371;-59
2024/04/11 11:19:34;;;;;;;9.20;6.20;;;;;;;25.15;40.19;101392.70;105991;1255;61326;-58
2024/04/11 11:22:01;;;;;;;13.10;5.90;;;;;;;25.18;39.79;101391.31;105842;1257;65907;-57
2024/04/11 11:24:28;;;;;;;11.50;6.20;;;;;;;25.19;39.71;101395.04;106026;1257;62199;-57
2024/04/11 11:27:00;;;;;;;10.60;6.20;;;;;;;25.21;39.93;101391.33;107579;1253;64105;-59
2024/04/11 11:29:28;;;;;;;7.60;5.90;;;;;;;25.27;39.93;101389.49;109245;1254;59303;-58
2024/04/11 11:32:03;;;;;;;15.20;6.60;;;;;;;25.33;39.62;101386.27;109314;1254;58962;-59